PDT6080 KSYR-KBOS
Flight info
| Callsign | PDT6080 |
|---|---|
| Flight time | 1h 1m |
| Altitude | 35000 |
| Route | LAMMS PONCT JFUND2 |
| Aircraft | E135/M-SDFGIRW/S |
Departure
| Time | 2026-04-27 21:54 |
|---|---|
| Airport | Syracuse Hancock International Airport (KSYR) |
Arrival
| Time | 2026-04-27 22:56 |
|---|---|
| Airport | Boston Logan International Airport (KBOS) |
| Time | Latitude | Longitude | Altitude | Speed | Heading |
|---|---|---|---|---|---|
| 2026-04-27 21:32 | 43.11346 | -76.10934 | 422 ft | 0 kts | 197° |
| 2026-04-27 21:44 | 43.11350 | -76.10933 | 422 ft | 2 kts | 194° |
| 2026-04-27 21:44 | 43.11365 | -76.10932 | 423 ft | 2 kts | 169° |
| 2026-04-27 21:44 | 43.11379 | -76.10939 | 423 ft | 2 kts | 147° |
| 2026-04-27 21:44 | 43.11390 | -76.10953 | 422 ft | 2 kts | 123° |
| 2026-04-27 21:45 | 43.11396 | -76.10971 | 422 ft | 2 kts | 101° |
| 2026-04-27 21:45 | 43.11397 | -76.10987 | 422 ft | 0 kts | 87° |
| 2026-04-27 21:47 | 43.11397 | -76.10986 | 422 ft | 0 kts | 87° |
| 2026-04-27 21:47 | 43.11398 | -76.10963 | 422 ft | 3 kts | 86° |
| 2026-04-27 21:48 | 43.11399 | -76.10916 | 422 ft | 6 kts | 89° |
| 2026-04-27 21:48 | 43.11400 | -76.10845 | 422 ft | 8 kts | 89° |
| 2026-04-27 21:48 | 43.11395 | -76.10751 | 422 ft | 11 kts | 118° |
| 2026-04-27 21:48 | 43.11313 | -76.10731 | 422 ft | 13 kts | 180° |
| 2026-04-27 21:49 | 43.11198 | -76.10731 | 421 ft | 20 kts | 179° |
| 2026-04-27 21:49 | 43.11037 | -76.10734 | 421 ft | 23 kts | 216° |
| 2026-04-27 21:49 | 43.10999 | -76.10947 | 423 ft | 24 kts | 268° |
| 2026-04-27 21:49 | 43.10992 | -76.11186 | 423 ft | 26 kts | 267° |
| 2026-04-27 21:50 | 43.10983 | -76.11442 | 425 ft | 26 kts | 268° |
| 2026-04-27 21:50 | 43.10974 | -76.11697 | 426 ft | 27 kts | 268° |
| 2026-04-27 21:50 | 43.10967 | -76.11962 | 426 ft | 28 kts | 267° |
| 2026-04-27 21:50 | 43.10957 | -76.12234 | 427 ft | 27 kts | 267° |
| 2026-04-27 21:51 | 43.10948 | -76.12486 | 426 ft | 24 kts | 268° |
| 2026-04-27 21:51 | 43.10934 | -76.12620 | 426 ft | 6 kts | 226° |
| 2026-04-27 21:51 | 43.10918 | -76.12631 | 426 ft | 0 kts | 195° |
| 2026-04-27 21:52 | 43.10916 | -76.12632 | 426 ft | 1 kts | 195° |
| 2026-04-27 21:53 | 43.10889 | -76.12631 | 426 ft | 8 kts | 170° |
| 2026-04-27 21:53 | 43.10823 | -76.12536 | 426 ft | 20 kts | 92° |
| 2026-04-27 21:53 | 43.10834 | -76.12216 | 428 ft | 63 kts | 86° |
| 2026-04-27 21:53 | 43.10869 | -76.11227 | 423 ft | 137 kts | 86° |
| 2026-04-27 21:54 | 43.10913 | -76.09753 | 737 ft | 163 kts | 84° |
| 2026-04-27 21:54 | 43.10959 | -76.08192 | 1517 ft | 168 kts | 85° |
| 2026-04-27 21:54 | 43.10997 | -76.06565 | 2246 ft | 179 kts | 85° |
| 2026-04-27 21:54 | 43.11070 | -76.04836 | 3021 ft | 187 kts | 84° |
| 2026-04-27 21:55 | 43.11164 | -76.03048 | 3867 ft | 193 kts | 82° |
| 2026-04-27 21:55 | 43.11266 | -76.01219 | 4821 ft | 195 kts | 85° |
| 2026-04-27 21:55 | 43.11344 | -75.99373 | 5690 ft | 203 kts | 85° |
| 2026-04-27 21:55 | 43.11363 | -75.97430 | 6544 ft | 209 kts | 91° |
| 2026-04-27 21:56 | 43.11012 | -75.95473 | 7368 ft | 216 kts | 114° |
| 2026-04-27 21:56 | 43.10421 | -75.90887 | 7830 ft | 282 kts | 98° |
| 2026-04-27 21:56 | 43.10066 | -75.88208 | 8842 ft | 288 kts | 101° |
| 2026-04-27 21:57 | 43.09657 | -75.85553 | 10012 ft | 287 kts | 103° |
| 2026-04-27 21:57 | 43.09229 | -75.82870 | 10998 ft | 293 kts | 102° |
| 2026-04-27 21:57 | 43.08782 | -75.80151 | 11942 ft | 298 kts | 102° |
| 2026-04-27 21:57 | 43.08329 | -75.77349 | 12869 ft | 303 kts | 102° |
| 2026-04-27 21:58 | 43.07868 | -75.74515 | 13761 ft | 307 kts | 102° |
| 2026-04-27 21:58 | 43.07399 | -75.71645 | 14619 ft | 313 kts | 102° |
| 2026-04-27 21:58 | 43.06930 | -75.68745 | 15450 ft | 318 kts | 101° |
| 2026-04-27 21:58 | 43.06428 | -75.65657 | 15644 ft | 347 kts | 101° |
| 2026-04-27 21:59 | 43.05885 | -75.62337 | 16102 ft | 363 kts | 101° |
| 2026-04-27 21:59 | 43.05327 | -75.58933 | 16939 ft | 365 kts | 100° |
| 2026-04-27 21:59 | 43.04772 | -75.55552 | 17682 ft | 369 kts | 100° |
| 2026-04-27 21:59 | 43.04200 | -75.52068 | 18366 ft | 374 kts | 99° |
| 2026-04-27 22:00 | 43.03627 | -75.48593 | 19032 ft | 378 kts | 99° |
| 2026-04-27 22:00 | 43.03036 | -75.45013 | 19699 ft | 383 kts | 99° |
| 2026-04-27 22:00 | 43.02441 | -75.41422 | 20341 ft | 387 kts | 99° |
| 2026-04-27 22:00 | 43.01840 | -75.37802 | 20964 ft | 391 kts | 98° |
| 2026-04-27 22:01 | 43.01230 | -75.34132 | 21561 ft | 396 kts | 99° |
| 2026-04-27 22:01 | 43.00610 | -75.30404 | 22115 ft | 401 kts | 99° |
| 2026-04-27 22:01 | 42.99987 | -75.26676 | 22660 ft | 405 kts | 98° |
| 2026-04-27 22:01 | 42.99353 | -75.22885 | 23196 ft | 409 kts | 98° |
| 2026-04-27 22:02 | 42.98720 | -75.19105 | 23704 ft | 413 kts | 98° |
| 2026-04-27 22:02 | 42.98068 | -75.15221 | 24201 ft | 417 kts | 98° |
| 2026-04-27 22:02 | 42.97412 | -75.11327 | 24680 ft | 421 kts | 98° |
| 2026-04-27 22:02 | 42.96754 | -75.07426 | 25142 ft | 425 kts | 98° |
| 2026-04-27 22:03 | 42.96073 | -75.03403 | 25620 ft | 429 kts | 98° |
| 2026-04-27 22:03 | 42.95399 | -74.99427 | 26165 ft | 429 kts | 98° |
| 2026-04-27 22:03 | 42.94727 | -74.95470 | 26744 ft | 429 kts | 97° |
| 2026-04-27 22:03 | 42.94051 | -74.91499 | 27311 ft | 428 kts | 97° |
| 2026-04-27 22:04 | 42.93370 | -74.87511 | 27876 ft | 428 kts | 97° |
| 2026-04-27 22:04 | 42.92696 | -74.83565 | 28433 ft | 428 kts | 97° |
| 2026-04-27 22:04 | 42.92014 | -74.79584 | 28989 ft | 428 kts | 97° |
| 2026-04-27 22:04 | 42.91333 | -74.75623 | 29560 ft | 428 kts | 97° |
| 2026-04-27 22:05 | 42.90644 | -74.71620 | 30145 ft | 427 kts | 97° |
| 2026-04-27 22:05 | 42.89959 | -74.67654 | 30729 ft | 426 kts | 97° |
| 2026-04-27 22:05 | 42.89277 | -74.63709 | 31288 ft | 426 kts | 96° |
| 2026-04-27 22:05 | 42.88600 | -74.59803 | 31838 ft | 425 kts | 96° |
| 2026-04-27 22:06 | 42.87918 | -74.55878 | 32374 ft | 424 kts | 96° |
| 2026-04-27 22:06 | 42.87227 | -74.51904 | 32870 ft | 425 kts | 96° |
| 2026-04-27 22:06 | 42.86540 | -74.47965 | 33352 ft | 426 kts | 96° |
| 2026-04-27 22:06 | 42.85847 | -74.44006 | 33839 ft | 427 kts | 96° |
| 2026-04-27 22:07 | 42.85161 | -74.40089 | 34300 ft | 427 kts | 96° |
| 2026-04-27 22:07 | 42.84467 | -74.36134 | 34761 ft | 427 kts | 96° |
| 2026-04-27 22:07 | 42.83764 | -74.32140 | 35192 ft | 428 kts | 97° |
| 2026-04-27 22:07 | 42.83060 | -74.28137 | 35321 ft | 440 kts | 97° |
| 2026-04-27 22:08 | 42.82335 | -74.24033 | 35288 ft | 454 kts | 97° |
| 2026-04-27 22:08 | 42.81580 | -74.19775 | 35274 ft | 465 kts | 97° |
| 2026-04-27 22:08 | 42.80802 | -74.15395 | 35270 ft | 476 kts | 97° |
| 2026-04-27 22:09 | 42.79238 | -74.06632 | 35230 ft | 474 kts | 97° |
| 2026-04-27 22:09 | 42.77675 | -73.97907 | 35223 ft | 471 kts | 97° |
| 2026-04-27 22:10 | 42.76106 | -73.89186 | 35223 ft | 470 kts | 97° |
| 2026-04-27 22:10 | 42.74707 | -73.80472 | 35218 ft | 462 kts | 89° |
| 2026-04-27 22:11 | 42.74609 | -73.71860 | 35225 ft | 453 kts | 82° |
| 2026-04-27 22:11 | 42.74570 | -73.63242 | 35235 ft | 454 kts | 83° |
| 2026-04-27 22:12 | 42.74505 | -73.54608 | 35247 ft | 456 kts | 83° |
| 2026-04-27 22:12 | 42.74432 | -73.45968 | 35257 ft | 458 kts | 83° |
| 2026-04-27 22:13 | 42.74352 | -73.37212 | 35253 ft | 459 kts | 83° |
| 2026-04-27 22:13 | 42.74265 | -73.28505 | 35239 ft | 461 kts | 84° |
| 2026-04-27 22:14 | 42.74170 | -73.19739 | 34803 ft | 460 kts | 84° |
| 2026-04-27 22:14 | 42.74121 | -73.15369 | 34371 ft | 455 kts | 84° |
| 2026-04-27 22:14 | 42.74004 | -73.11069 | 33937 ft | 454 kts | 89° |
| 2026-04-27 22:14 | 42.73547 | -73.06815 | 33508 ft | 454 kts | 92° |
| 2026-04-27 22:15 | 42.73056 | -73.02579 | 32947 ft | 450 kts | 92° |
| 2026-04-27 22:15 | 42.72565 | -72.98344 | 32384 ft | 446 kts | 92° |
| 2026-04-27 22:15 | 42.72082 | -72.94179 | 31828 ft | 443 kts | 92° |
| 2026-04-27 22:15 | 42.71602 | -72.90043 | 31271 ft | 439 kts | 92° |
| 2026-04-27 22:16 | 42.71125 | -72.85948 | 30700 ft | 436 kts | 92° |
| 2026-04-27 22:16 | 42.70655 | -72.81927 | 30164 ft | 433 kts | 92° |
| 2026-04-27 22:16 | 42.70177 | -72.77857 | 29633 ft | 429 kts | 93° |
| 2026-04-27 22:16 | 42.69705 | -72.73848 | 29105 ft | 426 kts | 93° |
| 2026-04-27 22:17 | 42.69237 | -72.69887 | 28554 ft | 423 kts | 93° |
| 2026-04-27 22:17 | 42.68769 | -72.65935 | 28000 ft | 420 kts | 93° |
| 2026-04-27 22:17 | 42.68303 | -72.62014 | 27449 ft | 417 kts | 93° |
| 2026-04-27 22:17 | 42.67829 | -72.58105 | 26895 ft | 414 kts | 93° |
| 2026-04-27 22:18 | 42.67364 | -72.54272 | 26346 ft | 411 kts | 93° |
| 2026-04-27 22:18 | 42.66902 | -72.50474 | 25799 ft | 408 kts | 94° |
| 2026-04-27 22:18 | 42.66433 | -72.46634 | 25236 ft | 405 kts | 94° |
| 2026-04-27 22:18 | 42.65990 | -72.43018 | 24699 ft | 402 kts | 94° |
| 2026-04-27 22:19 | 42.65531 | -72.39271 | 24142 ft | 399 kts | 94° |
| 2026-04-27 22:19 | 42.65072 | -72.35545 | 23587 ft | 396 kts | 94° |
| 2026-04-27 22:19 | 42.64618 | -72.31852 | 23033 ft | 393 kts | 94° |
| 2026-04-27 22:19 | 42.64193 | -72.28184 | 22485 ft | 389 kts | 94° |
| 2026-04-27 22:20 | 42.63770 | -72.24538 | 21956 ft | 386 kts | 94° |
| 2026-04-27 22:20 | 42.63349 | -72.20919 | 21429 ft | 383 kts | 94° |
| 2026-04-27 22:20 | 42.62938 | -72.17390 | 20911 ft | 380 kts | 94° |
| 2026-04-27 22:20 | 42.62523 | -72.13839 | 20386 ft | 377 kts | 94° |
| 2026-04-27 22:21 | 42.62108 | -72.10307 | 19864 ft | 374 kts | 94° |
| 2026-04-27 22:21 | 42.61700 | -72.06831 | 19346 ft | 371 kts | 94° |
| 2026-04-27 22:21 | 42.61287 | -72.03363 | 18825 ft | 368 kts | 95° |
| 2026-04-27 22:21 | 42.60869 | -71.99979 | 18323 ft | 365 kts | 95° |
| 2026-04-27 22:22 | 42.60448 | -71.96579 | 17810 ft | 362 kts | 95° |
| 2026-04-27 22:22 | 42.60029 | -71.93201 | 17296 ft | 359 kts | 95° |
| 2026-04-27 22:22 | 42.59616 | -71.89878 | 16786 ft | 356 kts | 95° |
| 2026-04-27 22:22 | 42.59201 | -71.86556 | 16271 ft | 353 kts | 95° |
| 2026-04-27 22:23 | 42.58794 | -71.83294 | 15760 ft | 350 kts | 95° |
| 2026-04-27 22:23 | 42.58326 | -71.80052 | 15169 ft | 346 kts | 98° |
| 2026-04-27 22:23 | 42.57823 | -71.76896 | 14555 ft | 337 kts | 97° |
| 2026-04-27 22:23 | 42.57336 | -71.73821 | 13942 ft | 330 kts | 98° |
| 2026-04-27 22:24 | 42.56855 | -71.70767 | 13313 ft | 323 kts | 98° |
| 2026-04-27 22:24 | 42.56394 | -71.67808 | 12695 ft | 317 kts | 98° |
| 2026-04-27 22:24 | 42.55926 | -71.64890 | 12064 ft | 313 kts | 98° |
| 2026-04-27 22:24 | 42.55472 | -71.62042 | 11404 ft | 310 kts | 98° |
| 2026-04-27 22:25 | 42.55016 | -71.59193 | 10835 ft | 304 kts | 99° |
| 2026-04-27 22:25 | 42.54458 | -71.56461 | 10476 ft | 294 kts | 101° |
| 2026-04-27 22:25 | 42.53907 | -71.53809 | 10154 ft | 285 kts | 101° |
| 2026-04-27 22:25 | 42.53376 | -71.51234 | 9873 ft | 274 kts | 101° |
| 2026-04-27 22:26 | 42.52870 | -71.48768 | 9607 ft | 265 kts | 101° |
| 2026-04-27 22:26 | 42.52374 | -71.46396 | 9340 ft | 258 kts | 102° |
| 2026-04-27 22:26 | 42.51891 | -71.44072 | 9075 ft | 251 kts | 101° |
| 2026-04-27 22:26 | 42.51425 | -71.41838 | 8819 ft | 246 kts | 101° |
| 2026-04-27 22:27 | 42.50969 | -71.39602 | 8560 ft | 243 kts | 104° |
| 2026-04-27 22:27 | 42.50054 | -71.37587 | 8326 ft | 255 kts | 122° |
| 2026-04-27 22:27 | 42.48994 | -71.35603 | 8076 ft | 258 kts | 121° |
| 2026-04-27 22:27 | 42.47930 | -71.33602 | 7828 ft | 260 kts | 121° |
| 2026-04-27 22:28 | 42.46867 | -71.31590 | 7580 ft | 261 kts | 121° |
| 2026-04-27 22:28 | 42.45808 | -71.29605 | 7330 ft | 261 kts | 121° |
| 2026-04-27 22:28 | 42.44733 | -71.27570 | 7080 ft | 261 kts | 121° |
| 2026-04-27 22:28 | 42.43681 | -71.25570 | 6827 ft | 261 kts | 121° |
| 2026-04-27 22:29 | 42.42614 | -71.23540 | 6575 ft | 261 kts | 122° |
| 2026-04-27 22:29 | 42.41556 | -71.21527 | 6325 ft | 259 kts | 121° |
| 2026-04-27 22:29 | 42.40502 | -71.19548 | 6075 ft | 256 kts | 121° |
| 2026-04-27 22:29 | 42.39450 | -71.17585 | 5820 ft | 254 kts | 121° |
| 2026-04-27 22:30 | 42.38427 | -71.15653 | 5568 ft | 251 kts | 121° |
| 2026-04-27 22:30 | 42.37406 | -71.13728 | 5479 ft | 245 kts | 121° |
| 2026-04-27 22:30 | 42.36396 | -71.11836 | 5506 ft | 246 kts | 122° |
| 2026-04-27 22:30 | 42.35398 | -71.09964 | 5509 ft | 245 kts | 121° |
| 2026-04-27 22:31 | 42.34412 | -71.08083 | 5625 ft | 242 kts | 121° |
| 2026-04-27 22:31 | 42.33405 | -71.06204 | 5777 ft | 250 kts | 121° |
| 2026-04-27 22:31 | 42.32355 | -71.04241 | 5976 ft | 257 kts | 121° |
| 2026-04-27 22:31 | 42.31294 | -71.02239 | 6000 ft | 263 kts | 122° |
| 2026-04-27 22:32 | 42.30203 | -71.00192 | 6003 ft | 269 kts | 122° |
| 2026-04-27 22:32 | 42.29097 | -70.98131 | 5999 ft | 264 kts | 122° |
| 2026-04-27 22:32 | 42.27767 | -70.96499 | 5996 ft | 256 kts | 149° |
| 2026-04-27 22:32 | 42.26035 | -70.96053 | 6011 ft | 255 kts | 181° |
| 2026-04-27 22:33 | 42.24255 | -70.96542 | 6003 ft | 260 kts | 193° |
| 2026-04-27 22:33 | 42.22525 | -70.97231 | 5763 ft | 260 kts | 195° |
| 2026-04-27 22:33 | 42.20786 | -70.97969 | 5517 ft | 261 kts | 195° |
| 2026-04-27 22:33 | 42.19020 | -70.98722 | 5257 ft | 260 kts | 195° |
| 2026-04-27 22:34 | 42.17302 | -70.99453 | 5008 ft | 258 kts | 196° |
| 2026-04-27 22:34 | 42.15603 | -71.00242 | 4756 ft | 257 kts | 197° |
| 2026-04-27 22:34 | 42.13894 | -71.01053 | 4508 ft | 255 kts | 197° |
| 2026-04-27 22:34 | 42.12206 | -71.01849 | 4252 ft | 254 kts | 197° |
| 2026-04-27 22:35 | 42.10531 | -71.02631 | 4029 ft | 252 kts | 197° |
| 2026-04-27 22:35 | 42.08893 | -71.03387 | 4001 ft | 248 kts | 197° |
| 2026-04-27 22:35 | 42.07243 | -71.04161 | 4000 ft | 246 kts | 197° |
| 2026-04-27 22:35 | 42.05714 | -71.05183 | 4001 ft | 247 kts | 220° |
| 2026-04-27 22:36 | 42.04805 | -71.07113 | 4012 ft | 243 kts | 257° |
| 2026-04-27 22:36 | 42.04854 | -71.09337 | 4015 ft | 235 kts | 294° |
| 2026-04-27 22:36 | 42.05755 | -71.11107 | 4022 ft | 227 kts | 316° |
| 2026-04-27 22:36 | 42.06839 | -71.12720 | 4000 ft | 227 kts | 319° |
| 2026-04-27 22:37 | 42.08188 | -71.13660 | 4012 ft | 213 kts | 357° |
| 2026-04-27 22:37 | 42.09591 | -71.13347 | 4016 ft | 198 kts | 21° |
| 2026-04-27 22:37 | 42.10865 | -71.12754 | 3990 ft | 187 kts | 21° |
| 2026-04-27 22:37 | 42.12102 | -71.12177 | 3998 ft | 183 kts | 21° |
| 2026-04-27 22:38 | 42.13307 | -71.11629 | 4035 ft | 183 kts | 22° |
| 2026-04-27 22:38 | 42.14550 | -71.11044 | 4010 ft | 191 kts | 21° |
| 2026-04-27 22:38 | 42.15774 | -71.10457 | 3990 ft | 181 kts | 24° |
| 2026-04-27 22:38 | 42.16943 | -71.09883 | 3890 ft | 171 kts | 22° |
| 2026-04-27 22:39 | 42.18011 | -71.09370 | 3706 ft | 152 kts | 22° |
| 2026-04-27 22:39 | 42.18944 | -71.08927 | 3516 ft | 135 kts | 23° |
| 2026-04-27 22:39 | 42.19815 | -71.08519 | 3361 ft | 130 kts | 26° |
| 2026-04-27 22:39 | 42.20677 | -71.08091 | 3190 ft | 132 kts | 24° |
| 2026-04-27 22:40 | 42.21566 | -71.07684 | 3016 ft | 136 kts | 22° |
| 2026-04-27 22:40 | 42.22484 | -71.07243 | 2815 ft | 140 kts | 24° |
| 2026-04-27 22:40 | 42.23413 | -71.06798 | 2620 ft | 142 kts | 23° |
| 2026-04-27 22:40 | 42.24353 | -71.06339 | 2402 ft | 141 kts | 22° |
| 2026-04-27 22:41 | 42.25288 | -71.05903 | 2204 ft | 140 kts | 24° |
| 2026-04-27 22:41 | 42.26215 | -71.05448 | 2001 ft | 140 kts | 23° |
| 2026-04-27 22:41 | 42.27146 | -71.05004 | 1796 ft | 141 kts | 22° |
| 2026-04-27 22:41 | 42.28077 | -71.04556 | 1605 ft | 141 kts | 25° |
| 2026-04-27 22:42 | 42.29019 | -71.04102 | 1397 ft | 142 kts | 22° |
| 2026-04-27 22:42 | 42.29947 | -71.03657 | 1199 ft | 142 kts | 23° |
| 2026-04-27 22:42 | 42.30894 | -71.03200 | 998 ft | 143 kts | 22° |
| 2026-04-27 22:42 | 42.31803 | -71.02765 | 799 ft | 125 kts | 22° |
| 2026-04-27 22:43 | 42.32587 | -71.02387 | 632 ft | 118 kts | 22° |
| 2026-04-27 22:43 | 42.33376 | -71.02007 | 475 ft | 121 kts | 22° |
| 2026-04-27 22:43 | 42.34186 | -71.01617 | 313 ft | 121 kts | 22° |
| 2026-04-27 22:43 | 42.34983 | -71.01247 | 513 ft | 129 kts | 20° |
| 2026-04-27 22:44 | 42.35872 | -71.00873 | 1063 ft | 137 kts | 18° |
| 2026-04-27 22:44 | 42.36803 | -71.00463 | 1582 ft | 145 kts | 20° |
| 2026-04-27 22:44 | 42.37732 | -70.99947 | 2192 ft | 143 kts | 35° |
| 2026-04-27 22:44 | 42.38326 | -70.98836 | 2649 ft | 155 kts | 75° |
| 2026-04-27 22:45 | 42.38438 | -70.97321 | 3325 ft | 171 kts | 94° |
| 2026-04-27 22:45 | 42.38307 | -70.95702 | 3948 ft | 174 kts | 105° |
| 2026-04-27 22:45 | 42.37794 | -70.94179 | 4260 ft | 188 kts | 124° |
| 2026-04-27 22:45 | 42.36769 | -70.92808 | 3790 ft | 214 kts | 140° |
| 2026-04-27 22:46 | 42.35521 | -70.91787 | 3359 ft | 212 kts | 153° |
| 2026-04-27 22:46 | 42.34087 | -70.91209 | 2988 ft | 207 kts | 167° |
| 2026-04-27 22:46 | 42.32798 | -70.91118 | 2972 ft | 192 kts | 182° |
| 2026-04-27 22:46 | 42.31597 | -70.91492 | 2951 ft | 178 kts | 199° |
| 2026-04-27 22:47 | 42.30442 | -70.92165 | 3010 ft | 185 kts | 201° |
| 2026-04-27 22:47 | 42.29212 | -70.92898 | 3019 ft | 199 kts | 201° |
| 2026-04-27 22:47 | 42.27922 | -70.93677 | 3018 ft | 210 kts | 201° |
| 2026-04-27 22:47 | 42.26611 | -70.94458 | 2990 ft | 200 kts | 201° |
| 2026-04-27 22:48 | 42.25362 | -70.95209 | 2994 ft | 192 kts | 200° |
| 2026-04-27 22:48 | 42.24152 | -70.95938 | 2994 ft | 186 kts | 201° |
| 2026-04-27 22:48 | 42.22954 | -70.96661 | 2998 ft | 184 kts | 202° |
| 2026-04-27 22:48 | 42.21797 | -70.97373 | 3000 ft | 183 kts | 201° |
| 2026-04-27 22:49 | 42.20621 | -70.98085 | 2994 ft | 179 kts | 200° |
| 2026-04-27 22:49 | 42.19480 | -70.98773 | 2997 ft | 181 kts | 201° |
| 2026-04-27 22:49 | 42.18325 | -70.99552 | 2993 ft | 185 kts | 216° |
| 2026-04-27 22:49 | 42.17690 | -71.00962 | 3008 ft | 169 kts | 263° |
| 2026-04-27 22:50 | 42.17879 | -71.02304 | 2988 ft | 143 kts | 310° |
| 2026-04-27 22:50 | 42.18607 | -71.03180 | 3017 ft | 141 kts | 326° |
| 2026-04-27 22:50 | 42.19418 | -71.04108 | 3028 ft | 159 kts | 326° |
| 2026-04-27 22:50 | 42.20279 | -71.05088 | 3006 ft | 161 kts | 325° |
| 2026-04-27 22:51 | 42.21109 | -71.06024 | 2981 ft | 143 kts | 326° |
| 2026-04-27 22:51 | 42.21843 | -71.06862 | 2985 ft | 132 kts | 324° |
| 2026-04-27 22:51 | 42.22673 | -71.07301 | 2775 ft | 127 kts | 8° |
| 2026-04-27 22:51 | 42.23475 | -71.06920 | 2603 ft | 121 kts | 30° |
| 2026-04-27 22:52 | 42.24282 | -71.06451 | 2425 ft | 124 kts | 27° |
| 2026-04-27 22:52 | 42.25073 | -71.06032 | 2263 ft | 118 kts | 25° |
| 2026-04-27 22:52 | 42.25833 | -71.05637 | 2077 ft | 115 kts | 25° |
| 2026-04-27 22:52 | 42.26601 | -71.05264 | 1906 ft | 117 kts | 25° |
| 2026-04-27 22:53 | 42.27382 | -71.04899 | 1750 ft | 120 kts | 25° |
| 2026-04-27 22:53 | 42.28183 | -71.04504 | 1580 ft | 124 kts | 22° |
| 2026-04-27 22:53 | 42.29010 | -71.04109 | 1399 ft | 123 kts | 24° |
| 2026-04-27 22:53 | 42.29816 | -71.03719 | 1224 ft | 121 kts | 23° |
| 2026-04-27 22:54 | 42.30611 | -71.03338 | 1055 ft | 121 kts | 22° |
| 2026-04-27 22:54 | 42.31412 | -71.02952 | 886 ft | 120 kts | 22° |
| 2026-04-27 22:54 | 42.32202 | -71.02571 | 721 ft | 121 kts | 22° |
| 2026-04-27 22:54 | 42.33009 | -71.02183 | 554 ft | 121 kts | 22° |
| 2026-04-27 22:55 | 42.33810 | -71.01798 | 389 ft | 121 kts | 22° |
| 2026-04-27 22:55 | 42.34619 | -71.01417 | 210 ft | 123 kts | 22° |
| 2026-04-27 22:55 | 42.35422 | -71.01023 | 61 ft | 121 kts | 22° |
| 2026-04-27 22:55 | 42.36158 | -71.00671 | 13 ft | 97 kts | 22° |
| 2026-04-27 22:56 | 42.36628 | -71.00447 | 10 ft | 43 kts | 13° |
| 2026-04-27 22:56 | 42.36926 | -71.00481 | 9 ft | 41 kts | 351° |
| 2026-04-27 22:56 | 42.37149 | -71.00635 | 9 ft | 34 kts | 315° |
| 2026-04-27 22:56 | 42.37294 | -71.00832 | 9 ft | 19 kts | 302° |
| 2026-04-27 22:57 | 42.37222 | -71.00955 | 9 ft | 20 kts | 205° |
| 2026-04-27 22:57 | 42.37085 | -71.01045 | 11 ft | 22 kts | 206° |
| 2026-04-27 22:57 | 42.37027 | -71.01084 | 12 ft | 0 kts | 207° |
| 2026-04-27 22:59 | 42.37027 | -71.01085 | 12 ft | 0 kts | 207° |
| 2026-04-27 22:59 | 42.37014 | -71.01093 | 12 ft | 3 kts | 207° |
| 2026-04-27 23:00 | 42.36954 | -71.01144 | 13 ft | 16 kts | 220° |
| 2026-04-27 23:00 | 42.36859 | -71.01231 | 13 ft | 12 kts | 162° |
| 2026-04-27 23:00 | 42.36786 | -71.01148 | 13 ft | 15 kts | 152° |
| 2026-04-27 23:01 | 42.36671 | -71.01167 | 13 ft | 20 kts | 206° |
| 2026-04-27 23:01 | 42.36532 | -71.01238 | 15 ft | 21 kts | 199° |
| 2026-04-27 23:01 | 42.36383 | -71.01310 | 16 ft | 24 kts | 199° |
| 2026-04-27 23:01 | 42.36215 | -71.01391 | 16 ft | 26 kts | 199° |
| 2026-04-27 23:02 | 42.36037 | -71.01477 | 16 ft | 23 kts | 199° |
| 2026-04-27 23:02 | 42.35985 | -71.01502 | 16 ft | 0 kts | 201° |
| 2026-04-27 23:03 | 42.35977 | -71.01506 | 16 ft | 4 kts | 202° |
| 2026-04-27 23:03 | 42.35917 | -71.01535 | 18 ft | 14 kts | 200° |
| 2026-04-27 23:04 | 42.35903 | -71.01701 | 16 ft | 24 kts | 281° |
| 2026-04-27 23:04 | 42.35949 | -71.01903 | 16 ft | 17 kts | 308° |
| 2026-04-27 23:04 | 42.36015 | -71.02036 | 15 ft | 17 kts | 300° |
| 2026-04-27 23:04 | 42.36077 | -71.02175 | 13 ft | 18 kts | 300° |
| 2026-04-27 23:05 | 42.36167 | -71.02277 | 13 ft | 17 kts | 359° |
| 2026-04-27 23:05 | 42.36283 | -71.02233 | 13 ft | 16 kts | 2° |
| 2026-04-27 23:05 | 42.36362 | -71.02326 | 13 ft | 13 kts | 328° |
| 2026-04-27 23:05 | 42.36368 | -71.02331 | 13 ft | 0 kts | 330° |
| 2026-04-27 23:06 | 42.36372 | -71.02334 | 13 ft | 2 kts | 331° |
| 2026-04-27 23:06 | 42.36397 | -71.02326 | 13 ft | 5 kts | 67° |
| 2026-04-27 23:06 | 42.36411 | -71.02286 | 13 ft | 0 kts | 64° |